sensor_id;sensor_type;location;lat;lon;timestamp;pressure;altitude;pressure_sealevel;temperature;humidity
61119;BME280;51448;51.660;5.824;2023-05-10T00:00:19;100722.66;;;13.56;100.00
61119;BME280;51448;51.660;5.824;2023-05-10T00:02:48;100729.63;;;13.57;100.00
61119;BME280;51448;51.660;5.824;2023-05-10T00:05:15;100723.50;;;13.56;100.00
61119;BME280;51448;51.660;5.824;2023-05-10T00:07:43;100722.56;;;13.57;100.00
61119;BME280;51448;51.660;5.824;2023-05-10T00:10:12;100733.06;;;13.59;100.00
61119;BME280;51448;51.660;5.824;2023-05-10T00:12:40;100725.19;;;13.57;100.00
61119;BME280;51448;51.660;5.824;2023-05-10T00:15:08;100719.91;;;13.57;100.00
61119;BME280;51448;51.660;5.824;2023-05-10T00:17:36;100717.38;;;13.56;100.00
61119;BME280;51448;51.660;5.824;2023-05-10T00:20:13;100717.28;;;13.57;100.00
61119;BME280;51448;51.660;5.824;2023-05-10T00:23:02;100723.56;;;13.55;100.00
61119;BME280;51448;51.660;5.824;2023-05-10T00:25:30;100719.91;;;13.57;100.00
61119;BME280;51448;51.660;5.824;2023-05-10T00:27:58;100724.34;;;13.57;100.00
61119;BME280;51448;51.660;5.824;2023-05-10T00:30:25;100721.72;;;13.57;100.00
61119;BME280;51448;51.660;5.824;2023-05-10T00:32:53;100718.22;;;13.56;100.00
61119;BME280;51448;51.660;5.824;2023-05-10T00:35:20;100718.22;;;13.56;100.00
61119;BME280;51448;51.660;5.824;2023-05-10T00:37:48;100717.41;;;13.54;100.00
61119;BME280;51448;51.660;5.824;2023-05-10T00:40:16;100718.31;;;13.53;100.00
61119;BME280;51448;51.660;5.824;2023-05-10T00:42:48;100719.28;;;13.52;100.00
61119;BME280;51448;51.660;5.824;2023-05-10T00:45:16;100722.75;;;13.53;100.00
61119;BME280;51448;51.660;5.824;2023-05-10T00:47:44;100722.75;;;13.53;100.00
61119;BME280;51448;51.660;5.824;2023-05-10T00:50:12;100716.69;;;13.51;100.00
61119;BME280;51448;51.660;5.824;2023-05-10T00:52:41;100724.59;;;13.51;100.00
61119;BME280;51448;51.660;5.824;2023-05-10T00:55:11;100714.03;;;13.51;100.00
61119;BME280;51448;51.660;5.824;2023-05-10T00:57:39;100715.88;;;13.48;100.00
61119;BME280;51448;51.660;5.824;2023-05-10T01:00:07;100707.16;;;13.46;100.00
61119;BME280;51448;51.660;5.824;2023-05-10T01:02:35;100708.97;;;13.46;100.00
61119;BME280;51448;51.660;5.824;2023-05-10T01:05:03;100710.75;;;13.45;100.00
61119;BME280;51448;51.660;5.824;2023-05-10T01:07:32;100718.72;;;13.44;100.00
61119;BME280;51448;51.660;5.824;2023-05-10T01:10:00;100717.00;;;13.43;100.00
61119;BME280;51448;51.660;5.824;2023-05-10T01:12:27;100717.94;;;13.42;100.00
61119;BME280;51448;51.660;5.824;2023-05-10T01:14:55;100720.63;;;13.40;100.00
61119;BME280;51448;51.660;5.824;2023-05-10T01:17:24;100715.28;;;13.42;100.00
61119;BME280;51448;51.660;5.824;2023-05-10T01:19:53;100725.00;;;13.41;100.00
61119;BME280;51448;51.660;5.824;2023-05-10T01:25:43;100719.88;;;13.37;100.00
61119;BME280;51448;51.660;5.824;2023-05-10T01:34:47;100719.28;;;13.30;100.00
61119;BME280;51448;51.660;5.824;2023-05-10T01:37:29;100718.38;;;13.31;100.00
61119;BME280;51448;51.660;5.824;2023-05-10T01:40:13;100714.03;;;13.28;100.00
61119;BME280;51448;51.660;5.824;2023-05-10T01:42:51;100717.59;;;13.29;100.00
61119;BME280;51448;51.660;5.824;2023-05-10T01:45:31;100721.97;;;13.28;100.00
61119;BME280;51448;51.660;5.824;2023-05-10T01:48:11;100721.16;;;13.26;100.00
61119;BME280;51448;51.660;5.824;2023-05-10T01:50:43;100723.81;;;13.26;100.00
61119;BME280;51448;51.660;5.824;2023-05-10T01:53:17;100722.91;;;13.27;100.00
61119;BME280;51448;51.660;5.824;2023-05-10T01:55:49;100718.47;;;13.28;100.00
61119;BME280;51448;51.660;5.824;2023-05-10T01:58:29;100717.50;;;13.31;100.00
61119;BME280;51448;51.660;5.824;2023-05-10T02:01:01;100718.38;;;13.31;100.00
61119;BME280;51448;51.660;5.824;2023-05-10T02:03:32;100724.59;;;13.28;100.00
61119;BME280;51448;51.660;5.824;2023-05-10T02:06:04;100720.25;;;13.27;100.00
61119;BME280;51448;51.660;5.824;2023-05-10T02:08:40;100722.94;;;13.26;100.00
61119;BME280;51448;51.660;5.824;2023-05-10T02:11:09;100724.75;;;13.25;100.00
61119;BME280;51448;51.660;5.824;2023-05-10T02:13:40;100724.75;;;13.25;100.00
61119;BME280;51448;51.660;5.824;2023-05-10T02:16:11;100731.72;;;13.26;100.00
61119;BME280;51448;51.660;5.824;2023-05-10T02:18:41;100745.88;;;13.25;100.00
61119;BME280;51448;51.660;5.824;2023-05-10T02:21:10;100741.44;;;13.26;100.00
61119;BME280;51448;51.660;5.824;2023-05-10T02:23:40;100744.94;;;13.26;100.00
61119;BME280;51448;51.660;5.824;2023-05-10T02:26:10;100743.19;;;13.27;100.00
61119;BME280;51448;51.660;5.824;2023-05-10T02:28:40;100747.56;;;13.26;100.00
61119;BME280;51448;51.660;5.824;2023-05-10T02:31:10;100740.53;;;13.27;100.00
61119;BME280;51448;51.660;5.824;2023-05-10T02:33:39;100744.94;;;13.26;100.00
61119;BME280;51448;51.660;5.824;2023-05-10T02:36:09;100741.44;;;13.26;100.00
61119;BME280;51448;51.660;5.824;2023-05-10T02:38:40;100743.22;;;13.25;100.00
61119;BME280;51448;51.660;5.824;2023-05-10T02:41:09;100749.41;;;13.24;100.00
61119;BME280;51448;51.660;5.824;2023-05-10T02:43:39;100751.25;;;13.22;100.00
61119;BME280;51448;51.660;5.824;2023-05-10T02:46:09;100744.28;;;13.21;100.00
61119;BME280;51448;51.660;5.824;2023-05-10T02:48:37;100742.53;;;13.20;100.00
61119;BME280;51448;51.660;5.824;2023-05-10T02:51:07;100743.47;;;13.19;100.00
61119;BME280;51448;51.660;5.824;2023-05-10T02:53:38;100746.13;;;13.19;100.00
61119;BME280;51448;51.660;5.824;2023-05-10T02:56:19;100745.13;;;13.22;100.00
61119;BME280;51448;51.660;5.824;2023-05-10T02:58:52;100745.50;;;13.13;100.00
61119;BME280;51448;51.660;5.824;2023-05-10T03:01:19;100744.63;;;13.12;100.00
61119;BME280;51448;51.660;5.824;2023-05-10T03:03:47;100745.44;;;13.14;100.00
61119;BME280;51448;51.660;5.824;2023-05-10T03:06:15;100743.59;;;13.16;100.00
61119;BME280;51448;51.660;5.824;2023-05-10T03:08:44;100742.69;;;13.17;100.00
61119;BME280;51448;51.660;5.824;2023-05-10T03:14:21;100752.19;;;13.21;100.00
61119;BME280;51448;51.660;5.824;2023-05-10T03:19:58;100749.56;;;13.21;100.00
61119;BME280;51448;51.660;5.824;2023-05-10T03:22:37;100751.25;;;13.22;100.00
61119;BME280;51448;51.660;5.824;2023-05-10T03:25:10;100753.84;;;13.24;100.00
61119;BME280;51448;51.660;5.824;2023-05-10T03:27:43;100756.44;;;13.25;100.00
61119;BME280;51448;51.660;5.824;2023-05-10T03:30:13;100758.09;;;13.28;100.00
61119;BME280;51448;51.660;5.824;2023-05-10T03:32:42;100755.41;;;13.30;100.00
61119;BME280;51448;51.660;5.824;2023-05-10T03:35:10;100756.28;;;13.30;100.00
61119;BME280;51448;51.660;5.824;2023-05-10T03:37:40;100761.50;;;13.32;100.00
61119;BME280;51448;51.660;5.824;2023-05-10T03:40:09;100764.94;;;13.34;100.00
61119;BME280;51448;51.660;5.824;2023-05-10T03:42:40;100771.94;;;13.35;100.00
61119;BME280;51448;51.660;5.824;2023-05-10T03:45:08;100767.53;;;13.35;100.00
61119;BME280;51448;51.660;5.824;2023-05-10T03:47:37;100763.94;;;13.36;100.00
61119;BME280;51448;51.660;5.824;2023-05-10T03:50:05;100770.09;;;13.37;100.00
61119;BME280;51448;51.660;5.824;2023-05-10T03:52:34;100773.53;;;13.39;100.00
61119;BME280;51448;51.660;5.824;2023-05-10T03:55:02;100779.69;;;13.39;100.00
61119;BME280;51448;51.660;5.824;2023-05-10T03:57:30;100773.41;;;13.42;100.00
61119;BME280;51448;51.660;5.824;2023-05-10T03:59:59;100779.50;;;13.44;100.00
61119;BME280;51448;51.660;5.824;2023-05-10T04:02:27;100779.44;;;13.45;100.00
61119;BME280;51448;51.660;5.824;2023-05-10T04:04:55;100782.94;;;13.46;100.00
61119;BME280;51448;51.660;5.824;2023-05-10T04:07:23;100782.88;;;13.47;100.00
61119;BME280;51448;51.660;5.824;2023-05-10T04:09:51;100783.72;;;13.48;100.00
61119;BME280;51448;51.660;5.824;2023-05-10T04:12:19;100779.25;;;13.50;100.00
61119;BME280;51448;51.660;5.824;2023-05-10T04:14:47;100780.16;;;13.49;100.00
61119;BME280;51448;51.660;5.824;2023-05-10T04:17:14;100781.94;;;13.48;100.00
61119;BME280;51448;51.660;5.824;2023-05-10T04:19:42;100782.88;;;13.47;100.00
61119;BME280;51448;51.660;5.824;2023-05-10T04:22:10;100787.16;;;13.50;100.00
61119;BME280;51448;51.660;5.824;2023-05-10T04:24:37;100781.84;;;13.52;100.00
61119;BME280;51448;51.660;5.824;2023-05-10T04:27:05;100782.63;;;13.54;100.00
61119;BME280;51448;51.660;5.824;2023-05-10T04:29:32;100787.91;;;13.54;100.00
61119;BME280;51448;51.660;5.824;2023-05-10T04:32:00;100787.81;;;13.55;100.00
61119;BME280;51448;51.660;5.824;2023-05-10T04:34:28;100791.41;;;13.54;100.00
61119;BME280;51448;51.660;5.824;2023-05-10T04:36:55;100787.97;;;13.52;100.00
61119;BME280;51448;51.660;5.824;2023-05-10T04:39:23;100795.09;;;13.50;100.00
61119;BME280;51448;51.660;5.824;2023-05-10T04:41:51;100786.38;;;13.48;100.00
61119;BME280;51448;51.660;5.824;2023-05-10T04:44:18;100793.44;;;13.47;100.00
61119;BME280;51448;51.660;5.824;2023-05-10T04:46:46;100796.94;;;13.48;100.00
61119;BME280;51448;51.660;5.824;2023-05-10T04:49:13;100799.59;;;13.48;100.00
61119;BME280;51448;51.660;5.824;2023-05-10T04:51:41;100792.56;;;13.47;100.00
61119;BME280;51448;51.660;5.824;2023-05-10T04:54:09;100797.00;;;13.46;100.00
61119;BME280;51448;51.660;5.824;2023-05-10T04:56:37;100802.28;;;13.46;100.00
61119;BME280;51448;51.660;5.824;2023-05-10T04:59:05;100797.84;;;13.47;100.00
61119;BME280;51448;51.660;5.824;2023-05-10T05:01:32;100800.50;;;13.47;100.00
61119;BME280;51448;51.660;5.824;2023-05-10T05:04:00;100799.59;;;13.48;100.00
61119;BME280;51448;51.660;5.824;2023-05-10T05:06:28;100804.88;;;13.48;100.00
61119;BME280;51448;51.660;5.824;2023-05-10T05:08:56;100800.56;;;13.45;100.00
61119;BME280;51448;51.660;5.824;2023-05-10T05:11:30;100802.28;;;13.46;100.00
61119;BME280;51448;51.660;5.824;2023-05-10T05:13:57;100808.41;;;13.47;100.00
61119;BME280;51448;51.660;5.824;2023-05-10T05:16:26;100810.16;;;13.48;100.00
61119;BME280;51448;51.660;5.824;2023-05-10T05:18:54;100815.44;;;13.48;100.00
61119;BME280;51448;51.660;5.824;2023-05-10T05:21:21;100814.50;;;13.49;100.00
61119;BME280;51448;51.660;5.824;2023-05-10T05:23:49;100812.91;;;13.45;100.00
61119;BME280;51448;51.660;5.824;2023-05-10T05:26:17;100818.31;;;13.42;100.00
61119;BME280;51448;51.660;5.824;2023-05-10T05:28:45;100816.78;;;13.36;100.00
61119;BME280;51448;51.660;5.824;2023-05-10T05:31:12;100817.78;;;13.34;100.00
61119;BME280;51448;51.660;5.824;2023-05-10T05:33:41;100823.16;;;13.31;100.00
61119;BME280;51448;51.660;5.824;2023-05-10T05:36:08;100817.88;;;13.31;100.00
61119;BME280;51448;51.660;5.824;2023-05-10T05:38:36;100819.78;;;13.27;100.00
61119;BME280;51448;51.660;5.824;2023-05-10T05:41:04;100820.81;;;13.23;100.00
61119;BME280;51448;51.660;5.824;2023-05-10T05:43:32;100825.34;;;13.19;100.00
61119;BME280;51448;51.660;5.824;2023-05-10T05:46:01;100825.44;;;13.16;100.00
61119;BME280;51448;51.660;5.824;2023-05-10T05:48:30;100831.72;;;13.14;100.00
61119;BME280;51448;51.660;5.824;2023-05-10T05:50:57;100837.03;;;13.12;100.00
61119;BME280;51448;51.660;5.824;2023-05-10T05:53:25;100838.97;;;13.08;100.00
61119;BME280;51448;51.660;5.824;2023-05-10T05:55:54;100836.47;;;13.04;100.00
61119;BME280;51448;51.660;5.824;2023-05-10T05:58:23;100835.63;;;13.03;100.00
61119;BME280;51448;51.660;5.824;2023-05-10T06:00:51;100845.22;;;13.06;100.00
61119;BME280;51448;51.660;5.824;2023-05-10T06:03:22;100843.38;;;13.08;100.00
61119;BME280;51448;51.660;5.824;2023-05-10T06:05:52;100845.09;;;13.09;100.00
61119;BME280;51448;51.660;5.824;2023-05-10T06:08:20;100845.84;;;13.13;100.00
61119;BME280;51448;51.660;5.824;2023-05-10T06:10:47;100850.94;;;13.17;100.00
61119;BME280;51448;51.660;5.824;2023-05-10T06:13:15;100848.19;;;13.20;100.00
61119;BME280;51448;51.660;5.824;2023-05-10T06:15:46;100857.78;;;13.23;100.00
61119;BME280;51448;51.660;5.824;2023-05-10T06:18:18;100850.75;;;13.22;100.00
61119;BME280;51448;51.660;5.824;2023-05-10T06:20:45;100853.34;;;13.23;100.00
61119;BME280;51448;51.660;5.824;2023-05-10T06:23:13;100855.75;;;13.31;100.00
61119;BME280;51448;51.660;5.824;2023-05-10T06:25:41;100863.34;;;13.39;100.00
61119;BME280;51448;51.660;5.824;2023-05-10T06:28:08;100856.91;;;13.46;100.00
61119;BME280;51448;51.660;5.824;2023-05-10T06:30:36;100856.47;;;13.57;100.00
61119;BME280;51448;51.660;5.824;2023-05-10T06:33:04;100859.63;;;13.66;100.00
61119;BME280;51448;51.660;5.824;2023-05-10T06:35:32;100861.00;;;13.75;100.00
61119;BME280;51448;51.660;5.824;2023-05-10T06:38:00;100861.56;;;13.83;100.00
61119;BME280;51448;51.660;5.824;2023-05-10T06:40:28;100864.81;;;13.90;100.00
61119;BME280;51448;51.660;5.824;2023-05-10T06:42:57;100864.69;;;13.93;100.00
61119;BME280;51448;51.660;5.824;2023-05-10T06:45:32;100867.34;;;13.93;100.00
61119;BME280;51448;51.660;5.824;2023-05-10T06:47:59;100868.25;;;13.92;100.00
61119;BME280;51448;51.660;5.824;2023-05-10T06:50:27;100871.81;;;13.91;100.00
61119;BME280;51448;51.660;5.824;2023-05-10T06:52:54;100872.72;;;13.90;100.00
61119;BME280;51448;51.660;5.824;2023-05-10T06:55:28;100881.56;;;13.91;100.00
61119;BME280;51448;51.660;5.824;2023-05-10T06:57:57;100874.59;;;13.88;100.00
61119;BME280;51448;51.660;5.824;2023-05-10T07:00:25;100885.16;;;13.88;100.00
61119;BME280;51448;51.660;5.824;2023-05-10T07:02:53;100888.69;;;13.88;100.00
61119;BME280;51448;51.660;5.824;2023-05-10T07:05:21;100892.03;;;13.92;100.00
61119;BME280;51448;51.660;5.824;2023-05-10T07:07:49;100894.69;;;13.92;100.00
61119;BME280;51448;51.660;5.824;2023-05-10T07:10:17;100892.97;;;13.91;100.00
61119;BME280;51448;51.660;5.824;2023-05-10T07:12:44;100896.53;;;13.90;100.00
61119;BME280;51448;51.660;5.824;2023-05-10T07:15:12;100903.59;;;13.89;100.00
61119;BME280;51448;51.660;5.824;2023-05-10T07:17:40;100900.97;;;13.89;100.00
61119;BME280;51448;51.660;5.824;2023-05-10T07:20:11;100899.16;;;13.90;100.00
61119;BME280;51448;51.660;5.824;2023-05-10T07:22:39;100901.81;;;13.90;100.00
61119;BME280;51448;51.660;5.824;2023-05-10T07:25:07;100900.97;;;13.89;100.00
61119;BME280;51448;51.660;5.824;2023-05-10T07:27:34;100907.09;;;13.90;100.00
61119;BME280;51448;51.660;5.824;2023-05-10T07:30:02;100910.69;;;13.89;100.00
61119;BME280;51448;51.660;5.824;2023-05-10T07:32:30;100911.59;;;13.88;100.00
61119;BME280;51448;51.660;5.824;2023-05-10T07:34:58;100907.25;;;13.87;100.00
61119;BME280;51448;51.660;5.824;2023-05-10T07:37:26;100916.88;;;13.88;100.00
61119;BME280;51448;51.660;5.824;2023-05-10T07:39:54;100924.72;;;13.91;100.00
61119;BME280;51448;51.660;5.824;2023-05-10T07:42:21;100917.44;;;13.96;100.00
61119;BME280;51448;51.660;5.824;2023-05-10T07:44:49;100915.53;;;14.00;100.00
61119;BME280;51448;51.660;5.824;2023-05-10T07:47:16;100918.91;;;14.03;100.00
61119;BME280;51448;51.660;5.824;2023-05-10T07:49:44;100919.78;;;14.04;100.00
61119;BME280;51448;51.660;5.824;2023-05-10T07:52:11;100919.78;;;14.04;100.00
61119;BME280;51448;51.660;5.824;2023-05-10T07:54:39;100916.28;;;14.03;100.00
61119;BME280;51448;51.660;5.824;2023-05-10T07:57:07;100926.72;;;14.06;100.00
61119;BME280;51448;51.660;5.824;2023-05-10T07:59:34;100920.56;;;14.06;100.00
61119;BME280;51448;51.660;5.824;2023-05-10T08:02:02;100925.66;;;14.11;100.00
61119;BME280;51448;51.660;5.824;2023-05-10T08:04:29;100929.03;;;14.14;100.00
61119;BME280;51448;51.660;5.824;2023-05-10T08:06:59;100923.50;;;14.20;100.00
61119;BME280;51448;51.660;5.824;2023-05-10T08:09:30;100933.63;;;14.31;100.00
61119;BME280;51448;51.660;5.824;2023-05-10T08:12:11;100932.41;;;14.40;100.00
61119;BME280;51448;51.660;5.824;2023-05-10T08:14:41;100924.19;;;14.46;100.00
61119;BME280;51448;51.660;5.824;2023-05-10T08:17:21;100936.56;;;14.45;100.00
61119;BME280;51448;51.660;5.824;2023-05-10T08:19:51;100939.34;;;14.42;100.00
61119;BME280;51448;51.660;5.824;2023-05-10T08:22:18;100947.41;;;14.39;100.00
61119;BME280;51448;51.660;5.824;2023-05-10T08:24:46;100948.34;;;14.38;100.00
61119;BME280;51448;51.660;5.824;2023-05-10T08:27:17;100950.97;;;14.38;100.00
61119;BME280;51448;51.660;5.824;2023-05-10T08:29:44;100953.69;;;14.37;100.00
61119;BME280;51448;51.660;5.824;2023-05-10T08:32:17;100966.06;;;14.36;100.00
61119;BME280;51448;51.660;5.824;2023-05-10T08:34:46;100957.19;;;14.37;100.00
61119;BME280;51448;51.660;5.824;2023-05-10T08:37:44;100965.84;;;14.41;100.00
61119;BME280;51448;51.660;5.824;2023-05-10T08:40:13;100966.41;;;14.49;100.00
61119;BME280;51448;51.660;5.824;2023-05-10T08:42:49;100963.47;;;14.57;100.00
61119;BME280;51448;51.660;5.824;2023-05-10T08:45:23;100962.16;;;14.67;100.00
61119;BME280;51448;51.660;5.824;2023-05-10T08:47:52;100959.09;;;14.76;100.00
61119;BME280;51448;51.660;5.824;2023-05-10T08:50:20;100973.72;;;14.85;100.00
61119;BME280;51448;51.660;5.824;2023-05-10T08:52:52;100979.56;;;14.93;100.00
61119;BME280;51448;51.660;5.824;2023-05-10T08:55:24;100976.69;;;14.98;100.00
61119;BME280;51448;51.660;5.824;2023-05-10T08:57:52;100983.69;;;14.99;100.00
61119;BME280;51448;51.660;5.824;2023-05-10T09:00:21;100984.63;;;14.98;100.00
61119;BME280;51448;51.660;5.824;2023-05-10T09:02:50;100979.41;;;14.96;100.00
61119;BME280;51448;51.660;5.824;2023-05-10T09:05:19;100986.44;;;14.97;100.00
61119;BME280;51448;51.660;5.824;2023-05-10T09:07:47;100986.34;;;14.99;100.00
61119;BME280;51448;51.660;5.824;2023-05-10T09:10:15;100989.47;;;15.08;100.00
61119;BME280;51448;51.660;5.824;2023-05-10T09:12:46;100991.72;;;15.18;100.00
61119;BME280;51448;51.660;5.824;2023-05-10T09:15:15;100983.34;;;15.27;100.00
61119;BME280;51448;51.660;5.824;2023-05-10T09:17:47;100997.94;;;15.36;100.00
61119;BME280;51448;51.660;5.824;2023-05-10T09:20:17;101001.09;;;15.44;100.00
61119;BME280;51448;51.660;5.824;2023-05-10T09:22:44;101008.78;;;15.50;100.00
61119;BME280;51448;51.660;5.824;2023-05-10T09:25:16;101000.66;;;15.55;100.00
61119;BME280;51448;51.660;5.824;2023-05-10T09:27:46;100998.84;;;15.55;100.00
61119;BME280;51448;51.660;5.824;2023-05-10T09:30:27;101009.44;;;15.55;100.00
61119;BME280;51448;51.660;5.824;2023-05-10T09:32:57;101010.50;;;15.51;100.00
61119;BME280;51448;51.660;5.824;2023-05-10T09:35:30;101015.94;;;15.48;100.00
61119;BME280;51448;51.660;5.824;2023-05-10T09:38:02;101015.16;;;15.46;100.00
61119;BME280;51448;51.660;5.824;2023-05-10T09:40:31;101008.09;;;15.46;100.00
61119;BME280;51448;51.660;5.824;2023-05-10T09:43:08;101021.34;;;15.46;100.00
61119;BME280;51448;51.660;5.824;2023-05-10T09:45:38;101022.31;;;15.44;100.00
61119;BME280;51448;51.660;5.824;2023-05-10T09:48:05;101029.47;;;15.42;100.00
61119;BME280;51448;51.660;5.824;2023-05-10T09:50:34;101025.19;;;15.39;100.00
61119;BME280;51448;51.660;5.824;2023-05-10T09:53:02;101023.47;;;15.38;100.00
61119;BME280;51448;51.660;5.824;2023-05-10T09:55:44;101029.56;;;15.40;100.00
61119;BME280;51448;51.660;5.824;2023-05-10T09:58:13;101032.28;;;15.39;100.00
61119;BME280;51448;51.660;5.824;2023-05-10T10:00:43;101035.00;;;15.37;100.00
61119;BME280;51448;51.660;5.824;2023-05-10T10:03:18;101033.97;;;15.40;100.00
61119;BME280;51448;51.660;5.824;2023-05-10T10:05:48;101035.50;;;15.45;100.00
61119;BME280;51448;51.660;5.824;2023-05-10T10:08:17;101032.34;;;15.56;100.00
61119;BME280;51448;51.660;5.824;2023-05-10T10:10:46;101035.50;;;15.64;100.00
61119;BME280;51448;51.660;5.824;2023-05-10T10:13:14;101037.09;;;15.68;100.00
61119;BME280;51448;51.660;5.824;2023-05-10T10:15:42;101038.97;;;15.66;100.00
61119;BME280;51448;51.660;5.824;2023-05-10T10:18:14;101041.81;;;15.62;100.00
61119;BME280;51448;51.660;5.824;2023-05-10T10:20:43;101047.41;;;15.56;100.00
61119;BME280;51448;51.660;5.824;2023-05-10T10:23:11;101037.81;;;15.53;100.00
61119;BME280;51448;51.660;5.824;2023-05-10T10:25:38;101041.31;;;15.54;100.00
61119;BME280;51448;51.660;5.824;2023-05-10T10:31:36;101044.06;;;15.71;100.00
61119;BME280;51448;51.660;5.824;2023-05-10T10:34:10;101044.44;;;15.82;100.00
61119;BME280;51448;51.660;5.824;2023-05-10T10:36:51;101047.47;;;15.94;100.00
61119;BME280;51448;51.660;5.824;2023-05-10T10:39:19;101048.75;;;16.04;100.00
61119;BME280;51448;51.660;5.824;2023-05-10T10:41:56;101042.22;;;16.11;100.00
61119;BME280;51448;51.660;5.824;2023-05-10T10:47:21;101038.84;;;16.07;100.00
61119;BME280;51448;51.660;5.824;2023-05-10T10:52:38;101045.53;;;15.97;100.00
61119;BME280;51448;51.660;5.824;2023-05-10T10:57:46;101040.88;;;15.83;100.00
61119;BME280;51448;51.660;5.824;2023-05-10T11:00:31;101045.31;;;15.83;100.00
61119;BME280;51448;51.660;5.824;2023-05-10T11:03:12;101047.97;;;15.83;100.00
61119;BME280;51448;51.660;5.824;2023-05-10T11:05:43;101043.66;;;15.80;100.00
61119;BME280;51448;51.660;5.824;2023-05-10T11:08:18;101053.47;;;15.78;100.00
61119;BME280;51448;51.660;5.824;2023-05-10T11:13:33;101046.38;;;15.79;100.00
61119;BME280;51448;51.660;5.824;2023-05-10T11:16:21;101057.78;;;15.81;100.00
61119;BME280;51448;51.660;5.824;2023-05-10T11:19:06;101057.78;;;15.81;100.00
61119;BME280;51448;51.660;5.824;2023-05-10T11:21:48;101059.78;;;15.76;100.00
61119;BME280;51448;51.660;5.824;2023-05-10T11:24:19;101056.44;;;15.70;100.00
61119;BME280;51448;51.660;5.824;2023-05-10T11:26:49;101062.13;;;15.63;100.00
61119;BME280;51448;51.660;5.824;2023-05-10T11:29:19;101059.53;;;15.61;100.00
61119;BME280;51448;51.660;5.824;2023-05-10T11:31:48;101062.03;;;15.64;100.00
61119;BME280;51448;51.660;5.824;2023-05-10T11:36:53;101064.94;;;15.79;100.00
61119;BME280;51448;51.660;5.824;2023-05-10T11:44:05;101072.50;;;15.88;100.00
61119;BME280;51448;51.660;5.824;2023-05-10T11:46:41;101068.69;;;15.94;100.00
61119;BME280;51448;51.660;5.824;2023-05-10T11:49:39;101065.81;;;15.98;100.00
61119;BME280;51448;51.660;5.824;2023-05-10T11:52:21;101067.34;;;16.04;100.00
61119;BME280;51448;51.660;5.824;2023-05-10T11:54:58;101063.66;;;16.06;100.00
61119;BME280;51448;51.660;5.824;2023-05-10T11:57:31;101070.56;;;16.11;100.00
61119;BME280;51448;51.660;5.824;2023-05-10T12:00:20;101063.22;;;16.16;100.00
61119;BME280;51448;51.660;5.824;2023-05-10T12:02:52;101065.69;;;16.20;100.00
61119;BME280;51448;51.660;5.824;2023-05-10T12:05:20;101056.63;;;16.24;100.00
61119;BME280;51448;51.660;5.824;2023-05-10T12:08:10;101059.84;;;16.31;100.00
61119;BME280;51448;51.660;5.824;2023-05-10T12:10:44;101057.03;;;16.34;100.00
61119;BME280;51448;51.660;5.824;2023-05-10T12:13:19;101063.53;;;16.46;100.00
61119;BME280;51448;51.660;5.824;2023-05-10T12:15:50;101060.22;;;16.60;100.00
61119;BME280;51448;51.660;5.824;2023-05-10T12:18:22;101060.38;;;16.74;100.00
61119;BME280;51448;51.660;5.824;2023-05-10T12:20:54;101069.78;;;16.81;100.00
61119;BME280;51448;51.660;5.824;2023-05-10T12:23:39;101065.81;;;16.90;100.00
61119;BME280;51448;51.660;5.824;2023-05-10T12:26:22;101071.81;;;16.94;100.00
61119;BME280;51448;51.660;5.824;2023-05-10T12:29:16;101070.88;;;16.95;100.00
61119;BME280;51448;51.660;5.824;2023-05-10T12:31:55;101069.16;;;16.94;100.00
61119;BME280;51448;51.660;5.824;2023-05-10T12:34:33;101063.31;;;16.87;100.00
61119;BME280;51448;51.660;5.824;2023-05-10T12:37:06;101077.03;;;16.78;100.00
61119;BME280;51448;51.660;5.824;2023-05-10T12:39:41;101081.75;;;16.71;100.00
61119;BME280;51448;51.660;5.824;2023-05-10T12:42:11;101078.63;;;16.63;100.00
61119;BME280;51448;51.660;5.824;2023-05-10T12:44:57;101087.69;;;16.59;100.00
61119;BME280;51448;51.660;5.824;2023-05-10T12:47:33;101094.72;;;16.60;100.00
61119;BME280;51448;51.660;5.824;2023-05-10T12:50:07;101090.97;;;16.64;100.00
61119;BME280;51448;51.660;5.824;2023-05-10T12:52:39;101096.06;;;16.68;100.00
61119;BME280;51448;51.660;5.824;2023-05-10T12:55:23;101101.91;;;16.75;100.00
61119;BME280;51448;51.660;5.824;2023-05-10T12:57:57;101106.16;;;16.79;100.00
61119;BME280;51448;51.660;5.824;2023-05-10T13:01:13;101110.50;;;16.82;100.00
61119;BME280;51448;51.660;5.824;2023-05-10T13:04:07;101096.81;;;16.89;100.00
61119;BME280;51448;51.660;5.824;2023-05-10T13:06:38;101103.63;;;16.95;100.00
61119;BME280;51448;51.660;5.824;2023-05-10T13:09:06;101105.97;;;17.01;100.00
61119;BME280;51448;51.660;5.824;2023-05-10T13:11:34;101105.81;;;17.04;100.00
61119;BME280;51448;51.660;5.824;2023-05-10T13:14:01;101106.50;;;17.08;100.00
61119;BME280;51448;51.660;5.824;2023-05-10T13:16:31;101107.28;;;17.10;100.00
61119;BME280;51448;51.660;5.824;2023-05-10T13:18:59;101105.66;;;17.07;100.00
61119;BME280;51448;51.660;5.824;2023-05-10T13:21:26;101105.81;;;17.04;100.00
61119;BME280;51448;51.660;5.824;2023-05-10T13:23:55;101107.84;;;16.99;100.00
61119;BME280;51448;51.660;5.824;2023-05-10T13:26:22;101116.06;;;16.95;100.00
61119;BME280;51448;51.660;5.824;2023-05-10T13:28:50;101112.63;;;16.93;100.00
61119;BME280;51448;51.660;5.824;2023-05-10T13:31:19;101112.84;;;16.88;100.00
61119;BME280;51448;51.660;5.824;2023-05-10T13:33:46;101115.66;;;16.85;100.00
61119;BME280;51448;51.660;5.824;2023-05-10T13:36:14;101119.38;;;16.81;100.00